Sierra Nevada Aquatic Research Lab (SNARL) Reserve, California Weather observations

Data are for 10 minute period ending at time listed.
 Day   Time   Solar   Ave.   Ave.  Ave.  Vector  Max.   Baro.   Total    
  of    of     Rad.   Air    Rel.  Wind   Wind   Wind  Press.  Precip.   
Year   Day            Temp.  Hum.  Speed  Dir.   Gust                    
2017   (PST)  Kw/m2    F      %     mph   deg.    mph    mb.     in.     
-------------------------------------------------------------------------
 112    7:30   0.45   47.0    50    3.2    36     5.5   785.4    0.00 
 112    7:40   0.47   47.8    49    2.9    65     5.6   785.3    0.00 
 112    7:50   0.52   49.3    47    2.3    40     5.6   785.2    0.00 
 112    8:00   0.54   51.8    43    1.6    49     3.5   785.2    0.00 
 112    8:10   0.55   54.4    34    1.2    26     4.4   785.0    0.00 
 112    8:20   0.58   55.7    31    1.9    18     4.0   784.9    0.00 
 112    8:30   0.66   56.2    29    2.6    47     5.3   784.8    0.00 
 112    8:40   0.67   57.6    27    3.3    55     6.0   784.7    0.00 
 112    8:50   0.65   57.6    27    4.1    73     7.1   784.7    0.00 
 112    9:00   0.69   57.6    26    4.5    83     8.4   784.7    0.00 
 112    9:10   0.70   58.2    26    3.9    58     9.3   784.5    0.00 
 112    9:20   0.77   59.1    26    4.7    91     9.5   784.5    0.00 
 112    9:30   0.72   59.5    26    3.5    40     7.9   784.5    0.00 
 112    9:40   0.80   60.2    25    4.9    59     9.1   784.4    0.00 
 112    9:50   0.84   60.4    25    5.2    76    10.3   784.4    0.00 
 112   10:00   0.85   61.0    24    7.1   106    12.0   784.3    0.00 
 112   10:10   0.89   61.4    25    8.2    84    14.0   784.4    0.00 
 112   10:20   0.93   62.2    26    8.2    92    14.9   784.3    0.00 
 112   10:30   0.94   62.9    25    6.7    95    11.0   784.2    0.00 
 112   10:40   0.97   64.8    22    8.2    88    13.5   784.1    0.00 
 112   10:50   0.91   64.9    22    7.9    87    13.4   784.1    0.00 
 112   11:00   0.98   64.3    22    7.7    93    13.5   784.1    0.00 
 112   11:10   1.00   65.4    21    7.6    86    12.6   784.0    0.00 
 112   11:20   1.00   66.3    20    8.7    93    16.1   783.9    0.00 
 112   11:30   1.01   66.8    20    9.4   103    16.3   783.8    0.00 
 112   11:40   0.99   66.5    20    9.5    96    15.5   783.7    0.00 
 112   11:50   1.01   66.7    20    6.5   104    13.4   783.7    0.00 
 112   12:00   1.04   66.9    20   10.7    95    21.9   783.6    0.00 
 112   12:10   1.06   66.8    19    7.3    90    15.9   783.6    0.00 
 112   12:20   1.03   66.9    19    7.6    94    14.2   783.6    0.00 
 112   12:30   1.02   66.6    19    8.6    79    15.9   783.5    0.00 
 112   12:40   1.00   67.9    18    5.0   101    12.3   783.4    0.00 
 112   12:50   1.00   68.8    17    6.5   108    11.9   783.5    0.00 
 112   13:00   1.06   69.5    15    3.7   128    13.8   783.4    0.00 
 112   13:10   1.03   69.7    15    8.6   120    23.6   783.4    0.00 
 112   13:20   1.03   69.8    13   14.8   228    27.2   783.2    0.00 
 112   13:30   0.95   69.1    12   15.8   236    28.2   783.2    0.00 
 112   13:40   0.99   69.0    12   11.7   220    25.1   783.1    0.00 
 112   13:50   0.94   68.7    12   13.4   222    24.5   783.0    0.00 
 112   14:00   0.97   68.5    12   12.8   222    24.8   783.0    0.00 
 112   14:10   0.92   68.3    12   19.4   226    32.4   782.9    0.00 
 112   14:20   0.89   67.6    12   13.2   222    25.2   782.9    0.00 
 112   14:30   0.90   67.3    12   11.4   207    31.5   782.9    0.00 
 112   14:40   0.80   67.4    12   11.3   209    24.6   782.9    0.00 
 112   14:50   0.77   66.8    13    8.5   236    19.5   782.9    0.00 
 112   15:00   0.74   66.3    16   11.8   213    24.3   782.9    0.00 
 112   15:10   0.69   66.1    16    8.0   228    25.1   782.9    0.00 
 112   15:20   0.54   65.0    17   13.4   229    22.5   782.9    0.00 
 112   15:30   0.60   65.2    17   11.1   217    24.0   782.8    0.00 
 112   15:40   0.62   65.6    17   12.8   229    25.4   782.7    0.00 
 112   15:50   0.55   63.9    17   14.1   216    31.5   782.9    0.00 
 112   16:00   0.51   63.2    17   14.1   233    29.1   782.7    0.00 
 112   16:10   0.49   63.0    18   16.9   220    29.4   782.7    0.00 
 112   16:20   0.46   62.6    19   17.1   221    26.1   782.4    0.00 
 112   16:30   0.41   62.5    18    7.1   273    17.8   782.3    0.00 
 112   16:40   0.37   62.5    19    9.3   234    20.4   782.4    0.00 
 112   16:50   0.24   62.0    20    6.7   221    11.7   782.4    0.00 
 112   17:00   0.07   60.0    21    9.6   197    24.2   782.2    0.00 
 112   17:10   0.07   59.1    22    4.9   236    11.1   782.3    0.00 
 112   17:20   0.06   58.3    23    7.7   217    16.8   782.0    0.00 
 112   17:30   0.04   57.8    22   11.3   217    23.5   781.8    0.00 
 112   17:40   0.03   57.3    22   11.4   216    26.3   781.5    0.00 
 112   17:50   0.02   57.2    21   12.4   214    21.9   781.4    0.00 
 112   18:00   0.01   57.4    19   16.2   207    31.6   781.3    0.00 
 112   18:10   0.01   57.1    18   16.1   218    24.3   781.2    0.00 
 112   18:20   0.01   56.9    18   16.8   210    30.4   781.3    0.00 
 112   18:30   0.00   56.3    17   14.9   217    29.4   781.2    0.00 
 112   18:40   0.00   56.2    17   15.6   221    29.5   781.4    0.00 
 112   18:50   0.00   55.8    17   16.8   212    27.4   781.4    0.00 
 112   19:00   0.00   55.7    18   17.7   211    31.2   781.2    0.00 
 112   19:10   0.00   55.7    17   19.2   215    30.8   781.3    0.00 
 112   19:20   0.00   55.6    17   17.9   208    27.8   781.5    0.00 
 112   19:30   0.00   54.9    17   17.5   208    26.0   781.5    0.00 
 112   19:40   0.00   55.1    16   18.5   211    28.0   781.5    0.00 
 112   19:50   0.00   55.0    17   19.9   204    30.0   781.4    0.00 
 112   20:00   0.00   54.6    18   20.6   211    30.8   781.5    0.00 
 112   20:10   0.00   54.4    18   20.1   208    31.0   781.6    0.00 
 112   20:20   0.00   54.2    17   19.4   199    28.0   781.6    0.00 
 112   20:30   0.00   54.1    18   20.8   205    32.5   781.7    0.00 
 112   20:40   0.00   54.0    17   21.6   203    32.7   781.7    0.00 
 112   20:50   0.00   54.1    17   21.1   205    30.2   781.7    0.00 
 112   21:00   0.00   53.9    17   19.5   210    25.6   781.5    0.00 
 112   21:10   0.00   53.3    18   21.6   212    29.1   781.5    0.00 
 112   21:20   0.00   53.3    18   20.0   193    30.8   781.7    0.00 
 112   21:30   0.00   53.2    18   18.9   191    29.5   781.7    0.00 
 112   21:40   0.00   53.2    18   21.6   200    33.6   781.7    0.00 
 112   21:50   0.00   53.2    19   22.8   207    31.6   781.7    0.00 
 112   22:00   0.00   53.1    20   25.7   205    35.2   781.6    0.00 
 112   22:10   0.00   53.1    23   24.7   206    39.9   781.3    0.00 
 112   22:20   0.00   52.8    24   22.2   214    33.4   781.3    0.00 
 112   22:30   0.00   52.9    25   23.2   215    37.6   781.3    0.00 
 112   22:40   0.00   52.1    23   20.0   192    27.3   781.2    0.00 
 112   22:50   0.00   51.7    23   15.4   186    24.8   781.3    0.00 
 112   23:00   0.00   51.3    23   13.5   186    34.1   781.3    0.00 
 112   23:10   0.00   51.4    23   11.3   194    23.2   781.4    0.00 
 112   23:20   0.00   52.2    22   20.5   214    34.3   781.0    0.00 
 112   23:30   0.00   52.3    24   20.5   210    32.9   781.1    0.00 
 112   23:40   0.00   52.1    26   21.8   213    34.5   780.8    0.00 
 112   23:50   0.00   52.4    23   21.1   206    33.5   780.7    0.00 
 113    0:00   0.00   52.3    22   18.7   208    30.8   780.6    0.00 
 113    0:10   0.00   51.5    23   16.4   190    27.0   780.5    0.00 
 113    0:20   0.00   49.9    26    7.6   214    22.6   780.8    0.00 
 113    0:30   0.00   51.8    24   13.5   194    23.6   780.5    0.00 
 113    0:40   0.00   50.4    26   13.4   192    27.7   780.4    0.00 
 113    0:50   0.00   49.3    28   13.3   193    28.4   780.3    0.00 
 113    1:00   0.00   48.6    28   11.2   193    26.7   780.2    0.00 
 113    1:10   0.00   50.2    26   12.5   181    29.3   780.0    0.00 
 113    1:20   0.00   49.8    27   10.1   176    20.4   779.8    0.00 
 113    1:30   0.00   45.7    36    6.0    95    11.5   779.9    0.00 
 113    1:40   0.00   45.0    37    6.9    94    19.8   779.7    0.00 
 113    1:50   0.00   44.1    40    6.9    62    11.8   779.6    0.00 
 113    2:00   0.00   42.9    42    5.6   111    16.4   779.6    0.00 
 113    2:10   0.00   41.8    44    4.2    29    11.8   779.6    0.00 
 113    2:20   0.00   42.7    42    5.4    68    13.3   779.6    0.00 
 113    2:30   0.00   42.6    42    5.0   122     9.2   779.6    0.00 
 113    2:40   0.00   43.4    39    5.6    80    12.0   779.4    0.00 
 113    2:50   0.00   45.2    38    5.2    74    11.4   779.4    0.00 
 113    3:00   0.00   43.5    42    5.2   100    10.8   779.3    0.00 
 113    3:10   0.00   43.2    44    4.5    97    10.4   779.2    0.00 
 113    3:20   0.00   42.6    46    4.2    73    11.9   779.2    0.00 
 113    3:30   0.00   42.5    46    4.0     4    12.6   779.2    0.00 
 113    3:40   0.00   41.6    48    2.3   265     5.2   779.1    0.00 
 113    3:50   0.00   41.3    47    3.5    24     7.7   779.0    0.00 
 113    4:00   0.00   41.5    47    5.4    44    11.4   779.0    0.00 
 113    4:10   0.00   43.1    45    3.7    66     9.7   779.1    0.00 
 113    4:20   0.00   42.1    49    5.2    58    11.3   779.1    0.00 
 113    4:30   0.00   42.6    46    9.7   128    23.4   778.9    0.00 
 113    4:40   0.00   44.1    41   14.8   196    34.8   779.0    0.00 
 113    4:50   0.00   48.3    32   23.0   211    39.5   779.0    0.00 
 113    5:00   0.00   49.2    29   24.3   211    34.0   778.8    0.00 
 113    5:10   0.00   49.2    28   24.7   219    38.0   778.5    0.00 
 113    5:20   0.01   49.4    27   26.0   218    39.8   778.7    0.00 
 113    5:30   0.03   49.7    29   28.0   214    40.0   778.9    0.00 
 113    5:40   0.04   49.9    29   25.2   216    38.6   779.0    0.00 
 113    5:50   0.07   49.9    30   25.5   210    40.5   779.2    0.00 
 113    6:00   0.10   50.1    31   20.1   212    33.9   779.1    0.00 
 113    6:10   0.14   50.4    30   20.7   220    33.1   778.9    0.00 
 113    6:20   0.09   50.9    24   20.9   209    37.3   778.7    0.00 
 113    6:30   0.12   51.1    21   23.0   203    40.6   778.9    0.00 
 113    6:40   0.26   52.1    22   25.3   203    37.7   778.9    0.00 
 113    6:50   0.30   52.1    26   21.0   209    34.7   778.9    0.00 
 113    7:00   0.26   52.3    25   20.9   202    39.4   778.9    0.00 
 113    7:10   0.08   50.8    21   19.3   198    32.0   778.9    0.00 
 113    7:20   0.38   52.2    18   24.0   208    43.4   778.8    0.00 

Return to SNARL Reserve graphs page.


Western Regional Climate Center,wrcc@dri.edu